createdAt,value
2023-02-02T00:01:35.509Z,8.10
2023-02-02T00:04:03.795Z,8.10
2023-02-02T00:06:32.657Z,8.20
2023-02-02T00:09:02.585Z,8.20
2023-02-02T00:11:30.655Z,8.20
2023-02-02T00:14:00.913Z,8.20
2023-02-02T00:16:37.679Z,8.20
2023-02-02T00:19:08.060Z,8.20
2023-02-02T00:21:36.601Z,8.10
2023-02-02T00:24:05.043Z,8.10
2023-02-02T00:26:33.084Z,8.10
2023-02-02T00:29:02.586Z,8.00
2023-02-02T00:31:30.597Z,8.00
2023-02-02T00:33:59.892Z,8.00
2023-02-02T00:36:28.136Z,7.90
2023-02-02T00:38:56.162Z,7.90
2023-02-02T00:41:24.109Z,7.90
2023-02-02T00:44:06.007Z,7.90
2023-02-02T00:46:35.424Z,7.90
2023-02-02T00:49:03.385Z,7.90
2023-02-02T00:51:31.357Z,7.90
2023-02-02T00:53:59.294Z,7.80
2023-02-02T00:56:27.186Z,7.80
2023-02-02T00:58:55.156Z,7.80
2023-02-02T01:01:23.869Z,7.80
2023-02-02T01:03:53.354Z,7.80
2023-02-02T01:06:21.567Z,7.80
2023-02-02T01:08:49.508Z,7.80
2023-02-02T01:11:17.705Z,7.80
2023-02-02T01:13:45.825Z,7.70
2023-02-02T01:16:14.185Z,7.70
2023-02-02T01:18:42.174Z,7.70
2023-02-02T01:21:13.000Z,7.60
2023-02-02T01:23:41.570Z,7.60
2023-02-02T01:26:11.416Z,7.50
2023-02-02T01:28:40.211Z,7.50
2023-02-02T01:31:10.140Z,7.50
2023-02-02T01:33:38.791Z,7.40
2023-02-02T01:36:09.307Z,7.40
2023-02-02T01:38:38.999Z,7.40
2023-02-02T01:41:07.604Z,7.30
2023-02-02T01:43:55.036Z,7.40
2023-02-02T01:46:25.463Z,7.40
2023-02-02T01:48:58.034Z,7.40
2023-02-02T01:51:30.698Z,7.30
2023-02-02T01:54:01.747Z,7.30
2023-02-02T01:56:33.706Z,7.30
2023-02-02T01:59:02.450Z,7.30
2023-02-02T02:01:30.600Z,7.30
2023-02-02T02:03:58.660Z,7.30
2023-02-02T02:06:27.309Z,7.30
2023-02-02T02:09:01.292Z,7.30
2023-02-02T02:11:29.227Z,7.30
2023-02-02T02:14:18.204Z,7.40
2023-02-02T02:17:12.773Z,7.30
2023-02-02T02:20:33.553Z,7.30
2023-02-02T02:23:40.310Z,7.40
2023-02-02T02:26:35.388Z,7.40
2023-02-02T02:29:30.210Z,7.40
2023-02-02T02:32:22.803Z,7.50
2023-02-02T02:34:56.222Z,7.50
2023-02-02T02:37:32.447Z,7.60
2023-02-02T02:40:07.682Z,7.70
2023-02-02T02:42:40.257Z,7.70
2023-02-02T02:45:10.592Z,7.80
2023-02-02T02:47:41.766Z,7.80
2023-02-02T02:50:10.997Z,7.80
2023-02-02T02:52:40.345Z,7.90
2023-02-02T02:55:11.785Z,7.80
2023-02-02T02:57:48.570Z,7.80
2023-02-02T03:00:30.660Z,7.90
2023-02-02T03:03:08.724Z,7.80
2023-02-02T03:05:48.231Z,7.90
2023-02-02T03:08:22.122Z,7.90
2023-02-02T03:10:50.316Z,7.90
2023-02-02T03:13:18.869Z,7.90
2023-02-02T03:15:47.238Z,7.90
2023-02-02T03:18:19.780Z,7.90
2023-02-02T03:20:48.071Z,7.90
2023-02-02T03:23:16.015Z,7.90
2023-02-02T03:25:45.180Z,7.90
2023-02-02T03:28:13.479Z,7.90
2023-02-02T03:30:42.872Z,7.90
2023-02-02T03:33:11.883Z,8.00
2023-02-02T03:35:41.151Z,8.00
2023-02-02T03:38:09.181Z,8.00
2023-02-02T03:40:37.329Z,8.00
2023-02-02T03:43:05.577Z,8.00
2023-02-02T03:45:35.341Z,8.00
2023-02-02T03:48:05.635Z,8.10
2023-02-02T03:50:33.931Z,8.10
2023-02-02T03:53:03.222Z,8.10
2023-02-02T03:55:31.120Z,8.10
2023-02-02T03:57:59.052Z,8.10
2023-02-02T04:00:26.993Z,8.20
2023-02-02T04:02:56.053Z,8.20
2023-02-02T04:05:24.266Z,8.20
2023-02-02T04:07:52.331Z,8.20
2023-02-02T04:10:21.810Z,8.20
2023-02-02T04:12:49.768Z,8.20
2023-02-02T04:15:17.857Z,8.30
2023-02-02T04:17:45.812Z,8.30
2023-02-02T04:20:13.836Z,8.30
2023-02-02T04:22:41.754Z,8.30
2023-02-02T04:25:09.998Z,8.30
2023-02-02T04:27:39.303Z,8.30
2023-02-02T04:30:08.994Z,8.40
2023-02-02T04:32:36.952Z,8.30
2023-02-02T04:35:05.452Z,8.30
2023-02-02T04:37:33.632Z,8.30
2023-02-02T04:40:01.572Z,8.30
2023-02-02T04:42:32.154Z,8.30
2023-02-02T04:45:01.414Z,8.30
2023-02-02T04:47:29.337Z,8.40
2023-02-02T04:49:57.215Z,8.30
2023-02-02T04:52:25.097Z,8.30
2023-02-02T04:54:53.004Z,8.30
2023-02-02T04:57:20.923Z,8.30
2023-02-02T04:59:48.844Z,8.30
2023-02-02T05:02:18.128Z,8.40
2023-02-02T05:04:46.162Z,8.40
2023-02-02T05:07:14.400Z,8.40
2023-02-02T05:09:42.308Z,8.40
2023-02-02T05:12:10.238Z,8.40
2023-02-02T05:14:38.105Z,8.50
2023-02-02T05:17:06.112Z,8.50
2023-02-02T05:19:35.359Z,8.50
2023-02-02T05:22:03.275Z,8.50
2023-02-02T05:24:31.200Z,8.50
2023-02-02T05:27:00.691Z,8.50
2023-02-02T05:29:28.719Z,8.50
2023-02-02T05:31:56.729Z,8.50
2023-02-02T05:34:24.697Z,8.50
2023-02-02T05:36:53.985Z,8.50
2023-02-02T05:39:21.894Z,8.50
2023-02-02T05:41:49.808Z,8.50
2023-02-02T05:44:17.724Z,8.50
2023-02-02T05:46:46.049Z,8.50
2023-02-02T05:49:15.345Z,8.50
2023-02-02T05:51:46.191Z,8.50
2023-02-02T05:54:19.427Z,8.60
2023-02-02T05:56:47.562Z,8.50
2023-02-02T05:59:15.451Z,8.50
2023-02-02T06:01:43.395Z,8.50
2023-02-02T06:04:11.391Z,8.50
2023-02-02T06:06:39.901Z,8.50
2023-02-02T06:09:08.453Z,8.50
2023-02-02T06:11:39.479Z,8.50
2023-02-02T06:14:08.224Z,8.50
2023-02-02T06:16:36.195Z,8.50
2023-02-02T06:19:04.856Z,8.50
2023-02-02T06:21:33.316Z,8.50
2023-02-02T06:24:02.200Z,8.50
2023-02-02T06:26:30.697Z,8.50
2023-02-02T06:29:00.098Z,8.50
2023-02-02T06:31:28.230Z,8.50
2023-02-02T06:33:58.018Z,8.40
2023-02-02T06:36:27.463Z,8.40
2023-02-02T06:38:57.015Z,8.40
2023-02-02T06:41:25.825Z,8.40
2023-02-02T06:43:53.875Z,8.40
2023-02-02T06:46:23.325Z,8.40
2023-02-02T06:48:51.456Z,8.40
2023-02-02T06:51:20.078Z,8.40
2023-02-02T06:53:49.298Z,8.30
2023-02-02T06:56:17.800Z,8.40
2023-02-02T06:58:46.195Z,8.40
2023-02-02T07:01:15.340Z,8.40
2023-02-02T07:03:44.847Z,8.40
2023-02-02T07:06:15.099Z,8.30
2023-02-02T07:08:43.824Z,8.30
2023-02-02T07:11:15.942Z,8.30
2023-02-02T07:13:44.759Z,8.30
2023-02-02T07:16:13.978Z,8.20
2023-02-02T07:18:44.334Z,8.20
2023-02-02T07:21:18.692Z,8.20
2023-02-02T07:23:46.991Z,8.20
2023-02-02T07:26:16.245Z,8.20
2023-02-02T07:28:45.041Z,8.20
2023-02-02T07:31:19.699Z,8.20
2023-02-02T07:33:50.035Z,8.20
2023-02-02T07:36:20.793Z,8.20
2023-02-02T07:38:49.982Z,8.20
2023-02-02T07:41:17.992Z,8.10
2023-02-02T07:43:48.664Z,8.10
2023-02-02T07:46:18.091Z,8.10
2023-02-02T07:48:49.716Z,8.10
2023-02-02T07:51:19.425Z,8.10
2023-02-02T07:53:48.660Z,8.10
2023-02-02T07:56:18.337Z,8.10
2023-02-02T07:58:46.587Z,8.10
2023-02-02T08:01:16.418Z,8.10
2023-02-02T08:03:44.583Z,8.10
2023-02-02T08:06:16.872Z,8.10
2023-02-02T08:08:45.039Z,8.10
2023-02-02T08:11:15.172Z,8.20
2023-02-02T08:13:44.341Z,8.20
2023-02-02T08:16:13.329Z,8.30
2023-02-02T08:18:42.283Z,8.30
2023-02-02T08:21:10.669Z,8.40
2023-02-02T08:23:41.784Z,8.40
2023-02-02T08:26:12.230Z,8.40
2023-02-02T08:28:41.470Z,8.40
2023-02-02T08:31:11.815Z,8.40
2023-02-02T08:33:40.188Z,8.50
2023-02-02T08:36:12.983Z,8.50
2023-02-02T08:38:42.692Z,8.50
2023-02-02T08:41:13.346Z,8.50
2023-02-02T08:43:42.178Z,8.60
2023-02-02T08:46:12.972Z,8.60
2023-02-02T08:48:42.018Z,8.60
2023-02-02T08:51:12.397Z,8.60
2023-02-02T08:53:41.857Z,8.60
2023-02-02T08:56:12.304Z,8.70
2023-02-02T08:58:40.966Z,8.70
2023-02-02T09:01:12.774Z,8.80
2023-02-02T09:03:41.879Z,8.80
2023-02-02T09:06:11.662Z,8.90
2023-02-02T09:08:40.202Z,8.80
2023-02-02T09:11:11.875Z,8.90
2023-02-02T09:13:41.345Z,8.90
2023-02-02T09:16:12.150Z,9.00
2023-02-02T09:18:41.145Z,9.10
2023-02-02T09:21:12.064Z,9.10
2023-02-02T09:23:41.976Z,9.10
2023-02-02T09:26:13.542Z,9.10
2023-02-02T09:28:43.395Z,9.20
2023-02-02T09:31:12.407Z,9.40
2023-02-02T09:33:41.995Z,9.40
2023-02-02T09:36:12.900Z,9.40
2023-02-02T09:38:41.938Z,9.40
2023-02-02T09:41:56.122Z,9.50
2023-02-02T09:44:48.176Z,9.50
2023-02-02T09:47:21.257Z,9.40
2023-02-02T09:50:04.783Z,9.40
2023-02-02T09:52:37.352Z,9.40
2023-02-02T09:55:13.232Z,9.40
2023-02-02T09:57:46.900Z,9.40
2023-02-02T10:00:27.142Z,9.40
2023-02-02T10:03:00.981Z,9.50
2023-02-02T10:05:33.629Z,9.40
2023-02-02T10:08:04.566Z,9.40
2023-02-02T10:10:37.316Z,9.40
2023-02-02T10:13:12.129Z,9.50
2023-02-02T10:15:44.035Z,9.40
2023-02-02T10:18:20.253Z,9.50
2023-02-02T10:20:55.763Z,9.40
2023-02-02T10:23:28.025Z,9.40
2023-02-02T10:25:59.080Z,9.40
2023-02-02T10:28:44.610Z,9.40
2023-02-02T10:31:21.086Z,9.40
2023-02-02T10:33:59.265Z,9.50
2023-02-02T10:36:34.380Z,9.50
2023-02-02T10:39:11.171Z,9.50
2023-02-02T10:41:49.569Z,9.50
2023-02-02T10:44:35.045Z,9.60
2023-02-02T10:47:07.833Z,9.60
2023-02-02T10:49:38.713Z,9.50
2023-02-02T10:52:17.222Z,9.50
2023-02-02T10:54:57.939Z,9.50
2023-02-02T10:57:39.158Z,9.50
2023-02-02T11:00:22.919Z,9.50
2023-02-02T11:02:52.399Z,9.50
2023-02-02T11:05:41.257Z,9.50
2023-02-02T11:08:15.455Z,9.50
2023-02-02T11:10:45.194Z,9.60
2023-02-02T11:13:20.341Z,9.60
2023-02-02T11:15:49.763Z,9.60
2023-02-02T11:18:29.613Z,9.70
2023-02-02T11:20:58.786Z,9.80
2023-02-02T11:23:29.158Z,9.80
2023-02-02T11:26:02.263Z,9.90
2023-02-02T11:28:36.748Z,9.80
2023-02-02T11:31:06.306Z,9.80
2023-02-02T11:33:36.179Z,9.80
2023-02-02T11:36:06.835Z,9.70
2023-02-02T11:38:34.999Z,9.70
2023-02-02T11:41:07.105Z,9.70
2023-02-02T11:43:41.303Z,9.70
2023-02-02T11:46:20.691Z,9.70
2023-02-02T11:48:52.011Z,9.70
2023-02-02T11:51:24.889Z,9.70
2023-02-02T11:54:03.717Z,9.70
2023-02-02T11:56:32.039Z,9.70
2023-02-02T11:59:03.728Z,9.60
2023-02-02T12:01:35.920Z,9.60
2023-02-02T12:04:22.727Z,9.60
2023-02-02T12:06:50.874Z,9.60
2023-02-02T12:09:22.935Z,9.60
2023-02-02T12:12:02.153Z,9.60
2023-02-02T12:14:38.372Z,9.60
2023-02-02T12:17:22.239Z,9.60
2023-02-02T12:20:31.636Z,9.60
2023-02-02T12:23:19.523Z,9.60
2023-02-02T12:26:02.451Z,9.60
2023-02-02T12:28:44.833Z,9.60
2023-02-02T12:31:27.879Z,9.60
2023-02-02T12:34:04.603Z,9.50
2023-02-02T12:36:46.640Z,9.50
2023-02-02T12:39:35.562Z,9.50
2023-02-02T12:42:29.245Z,9.50
2023-02-02T12:45:17.203Z,9.40
2023-02-02T12:47:57.689Z,9.30
2023-02-02T12:50:31.834Z,9.30
2023-02-02T12:53:19.206Z,9.20
2023-02-02T12:55:54.494Z,9.10
2023-02-02T12:58:34.031Z,9.10
2023-02-02T13:01:23.900Z,9.10
2023-02-02T13:04:10.575Z,9.00
2023-02-02T13:07:15.230Z,9.00
2023-02-02T13:09:49.819Z,9.00
2023-02-02T13:12:21.026Z,8.90
2023-02-02T13:14:51.911Z,8.90
2023-02-02T13:17:26.389Z,8.90
2023-02-02T13:19:58.857Z,8.90
2023-02-02T13:22:34.408Z,8.90
2023-02-02T13:25:09.416Z,8.80
2023-02-02T13:27:39.974Z,8.90
2023-02-02T13:30:23.935Z,8.80
2023-02-02T13:32:56.032Z,8.90
2023-02-02T13:35:28.454Z,8.80
2023-02-02T13:38:04.046Z,8.80
2023-02-02T13:40:37.073Z,8.80
2023-02-02T13:43:18.989Z,8.80
2023-02-02T13:45:58.315Z,8.80
2023-02-02T13:48:36.549Z,8.80
2023-02-02T13:51:40.447Z,8.80
2023-02-02T13:54:39.993Z,8.80
2023-02-02T13:57:21.514Z,8.80
2023-02-02T14:00:01.745Z,8.80
2023-02-02T14:02:35.972Z,8.80
2023-02-02T14:05:08.780Z,8.80
2023-02-02T14:07:42.096Z,8.80
2023-02-02T14:10:25.238Z,8.80
2023-02-02T14:12:56.924Z,8.70
2023-02-02T14:15:39.963Z,8.80
2023-02-02T14:18:08.498Z,8.80
2023-02-02T14:20:47.997Z,8.80
2023-02-02T14:23:51.255Z,8.70
2023-02-02T14:26:40.385Z,8.80
2023-02-02T14:29:39.646Z,8.70
2023-02-02T14:32:34.747Z,8.70
2023-02-02T14:35:45.972Z,8.70
2023-02-02T14:38:19.639Z,8.70
2023-02-02T14:40:54.037Z,8.70
2023-02-02T14:43:44.470Z,8.60
2023-02-02T14:46:48.333Z,8.60
2023-02-02T14:49:29.880Z,8.60
2023-02-02T14:52:03.151Z,8.60
2023-02-02T14:54:35.842Z,8.60
2023-02-02T14:57:07.894Z,8.60
2023-02-02T14:59:38.739Z,8.60
2023-02-02T15:02:24.650Z,8.60
2023-02-02T15:04:53.163Z,8.60
2023-02-02T15:07:56.514Z,8.60
2023-02-02T15:11:28.146Z,8.60
2023-02-02T15:14:11.296Z,8.50
2023-02-02T15:16:42.734Z,8.50
2023-02-02T15:19:32.505Z,8.50
2023-02-02T15:22:11.156Z,8.50
2023-02-02T15:24:40.473Z,8.50
2023-02-02T15:27:16.632Z,8.50
2023-02-02T15:29:48.229Z,8.50
2023-02-02T15:32:20.538Z,8.50
2023-02-02T15:34:52.972Z,8.50
2023-02-02T15:37:24.142Z,8.50
2023-02-02T15:39:53.917Z,8.50
2023-02-02T15:42:43.156Z,8.50
2023-02-02T15:45:34.906Z,8.40
2023-02-02T15:48:10.232Z,8.40
2023-02-02T15:50:46.483Z,8.40
2023-02-02T15:53:20.730Z,8.40
2023-02-02T15:55:49.441Z,8.50
2023-02-02T15:58:27.728Z,8.40
2023-02-02T16:01:03.210Z,8.40
2023-02-02T16:03:46.821Z,8.40
2023-02-02T16:06:18.401Z,8.40
2023-02-02T16:08:48.131Z,8.40
2023-02-02T16:11:18.519Z,8.40
2023-02-02T16:13:59.651Z,8.40
2023-02-02T16:16:29.824Z,8.40
2023-02-02T16:19:07.509Z,8.40
2023-02-02T16:21:45.498Z,8.40
2023-02-02T16:24:18.015Z,8.40
2023-02-02T16:26:47.862Z,8.40
2023-02-02T16:29:17.397Z,8.40
2023-02-02T16:31:46.631Z,8.40
2023-02-02T16:34:18.515Z,8.40
2023-02-02T16:37:05.414Z,8.40
2023-02-02T16:39:33.400Z,8.40
2023-02-02T16:42:10.727Z,8.40
2023-02-02T16:44:42.871Z,8.40
2023-02-02T16:47:37.802Z,8.40
2023-02-02T16:50:27.104Z,8.40
2023-02-02T16:52:58.900Z,8.40
2023-02-02T16:55:43.449Z,8.40
2023-02-02T16:58:20.702Z,8.40
2023-02-02T17:01:14.871Z,8.40
2023-02-02T17:03:51.481Z,8.40
2023-02-02T17:06:38.386Z,8.40
2023-02-02T17:09:28.845Z,8.40
2023-02-02T17:11:59.995Z,8.40
2023-02-02T17:14:35.028Z,8.40
2023-02-02T17:17:05.354Z,8.40
2023-02-02T17:19:33.878Z,8.40
2023-02-02T17:22:05.487Z,8.40
2023-02-02T17:24:35.709Z,8.40
2023-02-02T17:27:04.551Z,8.50
2023-02-02T17:29:32.931Z,8.50
2023-02-02T17:32:00.945Z,8.50
2023-02-02T17:34:30.637Z,8.50
2023-02-02T17:36:59.042Z,8.50
2023-02-02T17:39:27.027Z,8.50
2023-02-02T17:41:56.443Z,8.50
2023-02-02T17:44:24.416Z,8.50
2023-02-02T17:46:52.442Z,8.50
2023-02-02T17:49:21.249Z,8.50
2023-02-02T17:51:50.619Z,8.60
2023-02-02T17:54:18.789Z,8.60
2023-02-02T17:56:47.257Z,8.60
2023-02-02T17:59:16.572Z,8.60
2023-02-02T18:01:45.469Z,8.60
2023-02-02T18:04:15.231Z,8.70
2023-02-02T18:06:43.238Z,8.70
2023-02-02T18:09:11.556Z,8.70
2023-02-02T18:11:42.372Z,8.70
2023-02-02T18:14:10.888Z,8.70
2023-02-02T18:16:40.290Z,8.70
2023-02-02T18:19:08.356Z,8.70
2023-02-02T18:21:36.381Z,8.70
2023-02-02T18:24:04.610Z,8.70
2023-02-02T18:26:34.482Z,8.70
2023-02-02T18:29:02.492Z,8.70
2023-02-02T18:31:31.153Z,8.70
2023-02-02T18:34:00.637Z,8.70
2023-02-02T18:36:28.640Z,8.70
2023-02-02T18:38:57.978Z,8.80
2023-02-02T18:41:26.092Z,8.80
2023-02-02T18:43:55.182Z,8.80
2023-02-02T18:46:23.311Z,8.80
2023-02-02T18:48:51.327Z,8.80
2023-02-02T18:51:21.938Z,8.80
2023-02-02T18:53:50.286Z,8.80
2023-02-02T18:56:18.344Z,8.80
2023-02-02T18:58:46.380Z,8.80
2023-02-02T19:01:17.224Z,8.80
2023-02-02T19:03:49.905Z,8.80
2023-02-02T19:06:35.928Z,8.80
2023-02-02T19:09:05.916Z,8.80
2023-02-02T19:11:38.927Z,8.80
2023-02-02T19:14:13.392Z,8.70
2023-02-02T19:16:41.701Z,8.70
2023-02-02T19:19:16.350Z,8.70
2023-02-02T19:21:44.529Z,8.70
2023-02-02T19:24:14.898Z,8.60
2023-02-02T19:26:47.051Z,8.60
2023-02-02T19:29:19.271Z,8.60
2023-02-02T19:31:47.874Z,8.50
2023-02-02T19:34:20.803Z,8.50
2023-02-02T19:36:51.050Z,8.50
2023-02-02T19:39:21.711Z,8.50
2023-02-02T19:41:49.982Z,8.40
2023-02-02T19:44:20.817Z,8.40
2023-02-02T19:46:51.478Z,8.40
2023-02-02T19:49:25.542Z,8.50
2023-02-02T19:51:55.699Z,8.40
2023-02-02T19:54:29.024Z,8.40
2023-02-02T19:56:59.825Z,8.50
2023-02-02T19:59:34.198Z,8.50
2023-02-02T20:02:41.838Z,8.60
2023-02-02T20:05:19.263Z,8.60
2023-02-02T20:07:47.842Z,8.60
2023-02-02T20:10:21.414Z,8.70
2023-02-02T20:12:49.856Z,8.60
2023-02-02T20:15:26.909Z,8.70
2023-02-02T20:17:58.137Z,8.70
2023-02-02T20:20:29.480Z,8.70
2023-02-02T20:22:58.454Z,8.70
2023-02-02T20:25:29.186Z,8.70
2023-02-02T20:27:58.900Z,8.70
2023-02-02T20:30:30.757Z,8.70
2023-02-02T20:33:01.474Z,8.70
2023-02-02T20:35:39.367Z,8.70
2023-02-02T20:38:18.875Z,8.70
2023-02-02T20:40:48.291Z,8.70
2023-02-02T20:43:16.331Z,8.70
2023-02-02T20:45:44.459Z,8.70
2023-02-02T20:48:14.108Z,8.70
2023-02-02T20:50:43.125Z,8.80
2023-02-02T20:53:11.377Z,8.80
2023-02-02T20:55:39.391Z,8.80
2023-02-02T20:58:09.798Z,8.80
2023-02-02T21:00:38.177Z,8.80
2023-02-02T21:03:06.213Z,8.80
2023-02-02T21:05:34.619Z,8.80
2023-02-02T21:08:02.663Z,8.80
2023-02-02T21:10:30.670Z,8.90
2023-02-02T21:12:58.719Z,8.90
2023-02-02T21:15:28.326Z,8.90
2023-02-02T21:17:56.174Z,8.90
2023-02-02T21:20:24.448Z,8.90
2023-02-02T21:22:52.608Z,8.90
2023-02-02T21:25:21.640Z,8.90
2023-02-02T21:27:49.650Z,8.90
2023-02-02T21:30:18.172Z,8.90
2023-02-02T21:32:47.625Z,8.90
2023-02-02T21:35:15.760Z,8.90
2023-02-02T21:37:46.258Z,8.90
2023-02-02T21:40:22.434Z,8.90
2023-02-02T21:42:51.061Z,8.90
2023-02-02T21:45:37.082Z,8.90
2023-02-02T21:48:21.419Z,8.90
2023-02-02T21:50:49.453Z,9.00
2023-02-02T21:53:22.294Z,9.00
2023-02-02T21:55:53.414Z,9.00
2023-02-02T21:58:24.856Z,9.00
2023-02-02T22:00:53.667Z,9.00
2023-02-02T22:03:30.506Z,9.00
2023-02-02T22:06:06.892Z,9.00
2023-02-02T22:08:37.172Z,9.00
2023-02-02T22:11:10.385Z,9.00
2023-02-02T22:13:38.469Z,9.00
2023-02-02T22:16:14.710Z,9.00
2023-02-02T22:18:44.160Z,9.00
2023-02-02T22:21:14.856Z,9.00
2023-02-02T22:23:43.011Z,9.00
2023-02-02T22:26:27.615Z,9.10
2023-02-02T22:28:55.693Z,9.00
2023-02-02T22:31:23.739Z,9.10
2023-02-02T22:33:54.105Z,9.10
2023-02-02T22:36:22.120Z,9.20
2023-02-02T22:38:50.076Z,9.20
2023-02-02T22:41:18.047Z,9.20
2023-02-02T22:43:46.030Z,9.20
2023-02-02T22:46:14.162Z,9.20
2023-02-02T22:48:42.190Z,9.20
2023-02-02T22:51:11.489Z,9.20
2023-02-02T22:53:39.448Z,9.20
2023-02-02T22:56:08.034Z,9.30
2023-02-02T22:58:35.995Z,9.20
2023-02-02T23:01:04.896Z,9.20
2023-02-02T23:03:32.995Z,9.20
2023-02-02T23:06:02.035Z,9.30
2023-02-02T23:08:32.421Z,9.30
2023-02-02T23:11:00.502Z,9.30
2023-02-02T23:13:28.535Z,9.20
2023-02-02T23:15:56.688Z,9.20
2023-02-02T23:18:24.565Z,9.30
2023-02-02T23:20:52.620Z,9.30
2023-02-02T23:23:22.291Z,9.30
2023-02-02T23:25:51.648Z,9.30
2023-02-02T23:28:19.704Z,9.30
2023-02-02T23:30:48.038Z,9.40
2023-02-02T23:33:16.065Z,9.40
2023-02-02T23:35:44.010Z,9.40
2023-02-02T23:38:13.362Z,9.40
2023-02-02T23:40:41.436Z,9.40
2023-02-02T23:43:10.952Z,9.40
2023-02-02T23:45:39.569Z,9.40
2023-02-02T23:48:08.360Z,9.40
2023-02-02T23:50:38.416Z,9.40
2023-02-02T23:53:07.184Z,9.40
2023-02-02T23:55:35.309Z,9.40
2023-02-02T23:58:03.773Z,9.40
